sensor_id;sensor_type;location;lat;lon;timestamp;pressure;altitude;pressure_sealevel;temperature;humidity
65013;BME280;51715;39.432;-77.518;2023-05-23T00:00:19;100094.03;;;26.85;27.05
65013;BME280;51715;39.432;-77.518;2023-05-23T00:02:47;100097.51;;;26.74;27.60
65013;BME280;51715;39.432;-77.518;2023-05-23T00:05:15;100104.24;;;26.60;27.97
65013;BME280;51715;39.432;-77.518;2023-05-23T00:07:43;100107.08;;;26.42;28.53
65013;BME280;51715;39.432;-77.518;2023-05-23T00:10:13;100109.02;;;26.26;28.71
65013;BME280;51715;39.432;-77.518;2023-05-23T00:12:41;100111.20;;;26.37;28.95
65013;BME280;51715;39.432;-77.518;2023-05-23T00:15:11;100110.31;;;26.39;29.42
65013;BME280;51715;39.432;-77.518;2023-05-23T00:17:39;100112.05;;;26.22;29.61
65013;BME280;51715;39.432;-77.518;2023-05-23T00:20:07;100111.57;;;25.94;29.76
65013;BME280;51715;39.432;-77.518;2023-05-23T00:22:36;100115.14;;;25.85;30.05
65013;BME280;51715;39.432;-77.518;2023-05-23T00:25:05;100119.56;;;25.97;29.46
65013;BME280;51715;39.432;-77.518;2023-05-23T00:27:34;100122.23;;;25.76;29.76
65013;BME280;51715;39.432;-77.518;2023-05-23T00:30:05;100122.36;;;25.42;30.32
65013;BME280;51715;39.432;-77.518;2023-05-23T00:32:34;100123.55;;;25.21;30.69
65013;BME280;51715;39.432;-77.518;2023-05-23T00:35:02;100124.29;;;25.03;30.73
65013;BME280;51715;39.432;-77.518;2023-05-23T00:37:31;100126.62;;;24.84;31.04
65013;BME280;51715;39.432;-77.518;2023-05-23T00:39:58;100127.86;;;24.64;30.63
65013;BME280;51715;39.432;-77.518;2023-05-23T00:42:27;100130.72;;;24.79;30.69
65013;BME280;51715;39.432;-77.518;2023-05-23T00:44:56;100133.64;;;24.63;30.66
65013;BME280;51715;39.432;-77.518;2023-05-23T00:47:24;100133.72;;;24.64;30.78
65013;BME280;51715;39.432;-77.518;2023-05-23T00:49:53;100135.34;;;24.48;30.97
65013;BME280;51715;39.432;-77.518;2023-05-23T00:52:22;100136.69;;;24.28;31.07
65013;BME280;51715;39.432;-77.518;2023-05-23T00:54:52;100139.21;;;24.10;31.12
65013;BME280;51715;39.432;-77.518;2023-05-23T00:57:20;100139.53;;;23.99;31.43
65013;BME280;51715;39.432;-77.518;2023-05-23T00:59:49;100140.59;;;24.10;31.38
65013;BME280;51715;39.432;-77.518;2023-05-23T01:02:17;100141.79;;;23.91;31.78
65013;BME280;51715;39.432;-77.518;2023-05-23T01:04:46;100141.71;;;23.76;31.78
65013;BME280;51715;39.432;-77.518;2023-05-23T01:07:14;100143.19;;;23.99;31.71
65013;BME280;51715;39.432;-77.518;2023-05-23T01:09:42;100148.82;;;23.72;31.53
65013;BME280;51715;39.432;-77.518;2023-05-23T01:12:19;100149.75;;;23.21;32.24
65013;BME280;51715;39.432;-77.518;2023-05-23T01:14:55;100157.71;;;23.40;32.21
65013;BME280;51715;39.432;-77.518;2023-05-23T01:17:38;100164.33;;;23.28;32.16
65013;BME280;51715;39.432;-77.518;2023-05-23T01:20:12;100168.55;;;23.26;32.07
65013;BME280;51715;39.432;-77.518;2023-05-23T01:24:20;100171.74;;;23.23;31.65
65013;BME280;51715;39.432;-77.518;2023-05-23T01:27:04;100178.25;;;23.18;32.08
65013;BME280;51715;39.432;-77.518;2023-05-23T01:29:37;100185.59;;;23.10;32.27
65013;BME280;51715;39.432;-77.518;2023-05-23T01:32:11;100186.17;;;22.84;32.06
65013;BME280;51715;39.432;-77.518;2023-05-23T01:34:40;100188.65;;;23.09;31.73
65013;BME280;51715;39.432;-77.518;2023-05-23T01:37:10;100191.47;;;22.93;31.96
65013;BME280;51715;39.432;-77.518;2023-05-23T01:39:38;100192.01;;;22.69;32.00
65013;BME280;51715;39.432;-77.518;2023-05-23T01:42:08;100195.40;;;22.93;32.37
65013;BME280;51715;39.432;-77.518;2023-05-23T01:44:36;100199.10;;;22.41;32.19
65013;BME280;51715;39.432;-77.518;2023-05-23T01:47:07;100199.49;;;22.49;32.32
65013;BME280;51715;39.432;-77.518;2023-05-23T01:49:37;100203.51;;;22.53;32.63
65013;BME280;51715;39.432;-77.518;2023-05-23T01:52:08;100204.47;;;22.19;33.33
65013;BME280;51715;39.432;-77.518;2023-05-23T01:54:37;100206.42;;;22.26;33.84
65013;BME280;51715;39.432;-77.518;2023-05-23T01:57:06;100211.57;;;22.13;33.32
65013;BME280;51715;39.432;-77.518;2023-05-23T01:59:34;100217.37;;;22.08;33.77
65013;BME280;51715;39.432;-77.518;2023-05-23T02:02:02;100218.63;;;22.29;33.95
65013;BME280;51715;39.432;-77.518;2023-05-23T02:04:31;100222.27;;;21.97;33.76
65013;BME280;51715;39.432;-77.518;2023-05-23T02:06:59;100222.94;;;21.72;33.61
65013;BME280;51715;39.432;-77.518;2023-05-23T02:09:27;100224.99;;;21.93;33.43
65013;BME280;51715;39.432;-77.518;2023-05-23T02:11:55;100225.46;;;21.85;33.59
65013;BME280;51715;39.432;-77.518;2023-05-23T02:14:23;100227.33;;;21.79;33.87
65013;BME280;51715;39.432;-77.518;2023-05-23T02:16:51;100233.09;;;21.68;33.60
65013;BME280;51715;39.432;-77.518;2023-05-23T02:19:19;100232.37;;;22.12;33.75
65013;BME280;51715;39.432;-77.518;2023-05-23T02:21:47;100236.63;;;21.55;33.67
65013;BME280;51715;39.432;-77.518;2023-05-23T02:24:16;100236.54;;;21.50;33.68
65013;BME280;51715;39.432;-77.518;2023-05-23T02:26:44;100237.71;;;21.49;33.49
65013;BME280;51715;39.432;-77.518;2023-05-23T02:29:11;100241.74;;;21.68;33.80
65013;BME280;51715;39.432;-77.518;2023-05-23T02:31:40;100244.32;;;21.66;33.63
65013;BME280;51715;39.432;-77.518;2023-05-23T02:34:08;100245.87;;;21.58;33.55
65013;BME280;51715;39.432;-77.518;2023-05-23T02:36:36;100245.51;;;21.52;33.77
65013;BME280;51715;39.432;-77.518;2023-05-23T02:39:04;100247.99;;;21.48;33.73
65013;BME280;51715;39.432;-77.518;2023-05-23T02:41:32;100247.57;;;21.45;33.73
65013;BME280;51715;39.432;-77.518;2023-05-23T02:44:00;100251.57;;;21.53;34.01
65013;BME280;51715;39.432;-77.518;2023-05-23T02:46:28;100256.62;;;21.25;34.36
65013;BME280;51715;39.432;-77.518;2023-05-23T02:48:57;100259.99;;;21.32;34.55
65013;BME280;51715;39.432;-77.518;2023-05-23T02:51:25;100258.67;;;21.21;35.06
65013;BME280;51715;39.432;-77.518;2023-05-23T02:53:54;100260.41;;;20.86;35.89
65013;BME280;51715;39.432;-77.518;2023-05-23T02:56:22;100259.58;;;21.11;35.69
65013;BME280;51715;39.432;-77.518;2023-05-23T02:58:50;100257.67;;;20.97;34.66
65013;BME280;51715;39.432;-77.518;2023-05-23T03:01:18;100258.85;;;20.93;35.27
65013;BME280;51715;39.432;-77.518;2023-05-23T03:03:47;100254.47;;;20.84;35.46
65013;BME280;51715;39.432;-77.518;2023-05-23T03:06:15;100252.29;;;20.83;35.35
65013;BME280;51715;39.432;-77.518;2023-05-23T03:08:43;100251.70;;;20.65;35.43
65013;BME280;51715;39.432;-77.518;2023-05-23T03:11:11;100251.53;;;20.89;34.57
65013;BME280;51715;39.432;-77.518;2023-05-23T03:13:39;100248.16;;;20.83;34.85
65013;BME280;51715;39.432;-77.518;2023-05-23T03:16:07;100244.99;;;20.83;35.11
65013;BME280;51715;39.432;-77.518;2023-05-23T03:18:35;100245.48;;;20.83;35.00
65013;BME280;51715;39.432;-77.518;2023-05-23T03:21:03;100246.49;;;20.80;35.20
65013;BME280;51715;39.432;-77.518;2023-05-23T03:23:32;100248.99;;;20.82;35.18
65013;BME280;51715;39.432;-77.518;2023-05-23T03:26:00;100251.45;;;20.74;35.23
65013;BME280;51715;39.432;-77.518;2023-05-23T03:28:28;100252.23;;;20.54;35.41
65013;BME280;51715;39.432;-77.518;2023-05-23T03:30:57;100248.38;;;20.77;35.30
65013;BME280;51715;39.432;-77.518;2023-05-23T03:33:25;100246.37;;;20.52;35.48
65013;BME280;51715;39.432;-77.518;2023-05-23T03:35:53;100247.85;;;20.48;35.69
65013;BME280;51715;39.432;-77.518;2023-05-23T03:38:21;100248.00;;;20.68;35.55
65013;BME280;51715;39.432;-77.518;2023-05-23T03:40:50;100253.02;;;20.73;35.56
65013;BME280;51715;39.432;-77.518;2023-05-23T03:43:17;100252.89;;;20.80;35.38
65013;BME280;51715;39.432;-77.518;2023-05-23T03:45:45;100255.63;;;20.83;35.16
65013;BME280;51715;39.432;-77.518;2023-05-23T03:48:13;100256.01;;;20.83;34.82
65013;BME280;51715;39.432;-77.518;2023-05-23T03:50:42;100257.21;;;20.77;35.32
65013;BME280;51715;39.432;-77.518;2023-05-23T03:53:10;100260.17;;;20.77;35.01
65013;BME280;51715;39.432;-77.518;2023-05-23T03:55:39;100259.45;;;20.77;35.00
65013;BME280;51715;39.432;-77.518;2023-05-23T03:58:07;100261.64;;;20.65;35.42
65013;BME280;51715;39.432;-77.518;2023-05-23T04:04:00;100265.30;;;20.52;34.63
65013;BME280;51715;39.432;-77.518;2023-05-23T04:06:29;100265.54;;;20.50;34.42
65013;BME280;51715;39.432;-77.518;2023-05-23T04:08:57;100270.23;;;20.71;34.68
65013;BME280;51715;39.432;-77.518;2023-05-23T04:11:25;100273.69;;;20.72;34.43
65013;BME280;51715;39.432;-77.518;2023-05-23T04:13:53;100275.41;;;20.81;34.88
65013;BME280;51715;39.432;-77.518;2023-05-23T04:16:22;100275.75;;;20.32;35.69
65013;BME280;51715;39.432;-77.518;2023-05-23T04:18:50;100276.43;;;20.66;35.58
65013;BME280;51715;39.432;-77.518;2023-05-23T04:21:18;100274.58;;;20.50;35.72
65013;BME280;51715;39.432;-77.518;2023-05-23T04:23:46;100278.97;;;20.45;36.14
65013;BME280;51715;39.432;-77.518;2023-05-23T04:26:14;100279.53;;;20.00;36.37
65013;BME280;51715;39.432;-77.518;2023-05-23T04:28:42;100277.97;;;20.17;36.41
65013;BME280;51715;39.432;-77.518;2023-05-23T04:31:11;100279.12;;;19.94;36.75
65013;BME280;51715;39.432;-77.518;2023-05-23T04:33:39;100280.55;;;19.93;36.63
65013;BME280;51715;39.432;-77.518;2023-05-23T04:36:08;100287.33;;;20.00;36.74
65013;BME280;51715;39.432;-77.518;2023-05-23T04:38:36;100293.37;;;20.33;36.88
65013;BME280;51715;39.432;-77.518;2023-05-23T04:41:05;100303.94;;;20.29;36.95
65013;BME280;51715;39.432;-77.518;2023-05-23T04:43:33;100308.66;;;20.09;36.58
65013;BME280;51715;39.432;-77.518;2023-05-23T04:46:00;100309.53;;;20.11;36.20
65013;BME280;51715;39.432;-77.518;2023-05-23T04:48:28;100308.97;;;20.19;36.18
65013;BME280;51715;39.432;-77.518;2023-05-23T04:50:56;100311.16;;;20.18;36.43
65013;BME280;51715;39.432;-77.518;2023-05-23T04:53:25;100312.89;;;20.60;36.63
65013;BME280;51715;39.432;-77.518;2023-05-23T04:55:53;100314.19;;;20.13;36.41
65013;BME280;51715;39.432;-77.518;2023-05-23T04:58:20;100314.51;;;19.94;36.79
65013;BME280;51715;39.432;-77.518;2023-05-23T05:00:48;100315.48;;;20.47;37.03
65013;BME280;51715;39.432;-77.518;2023-05-23T05:03:16;100317.93;;;20.44;37.05
65013;BME280;51715;39.432;-77.518;2023-05-23T05:05:44;100315.99;;;20.25;36.83
65013;BME280;51715;39.432;-77.518;2023-05-23T05:08:12;100316.76;;;20.06;36.66
65013;BME280;51715;39.432;-77.518;2023-05-23T05:10:40;100317.92;;;20.13;36.48
65013;BME280;51715;39.432;-77.518;2023-05-23T05:13:08;100318.33;;;20.44;36.31
65013;BME280;51715;39.432;-77.518;2023-05-23T05:15:37;100319.55;;;20.16;36.47
65013;BME280;51715;39.432;-77.518;2023-05-23T05:18:05;100315.84;;;20.18;36.16
65013;BME280;51715;39.432;-77.518;2023-05-23T05:20:33;100316.98;;;20.45;35.96
65013;BME280;51715;39.432;-77.518;2023-05-23T05:23:01;100316.00;;;20.24;36.09
65013;BME280;51715;39.432;-77.518;2023-05-23T05:25:29;100318.23;;;20.55;35.40
65013;BME280;51715;39.432;-77.518;2023-05-23T05:27:59;100316.95;;;20.28;35.57
65013;BME280;51715;39.432;-77.518;2023-05-23T05:30:27;100319.83;;;20.38;35.77
65013;BME280;51715;39.432;-77.518;2023-05-23T05:32:55;100322.25;;;20.43;35.71
65013;BME280;51715;39.432;-77.518;2023-05-23T05:35:24;100324.39;;;20.47;35.64
65013;BME280;51715;39.432;-77.518;2023-05-23T05:37:52;100321.52;;;20.48;35.60
65013;BME280;51715;39.432;-77.518;2023-05-23T05:40:20;100321.42;;;20.50;35.59
65013;BME280;51715;39.432;-77.518;2023-05-23T05:42:48;100319.17;;;20.52;35.33
65013;BME280;51715;39.432;-77.518;2023-05-23T05:45:16;100321.41;;;20.52;34.93
65013;BME280;51715;39.432;-77.518;2023-05-23T05:47:45;100325.27;;;20.56;35.10
65013;BME280;51715;39.432;-77.518;2023-05-23T05:50:13;100328.32;;;20.57;35.16
65013;BME280;51715;39.432;-77.518;2023-05-23T05:52:41;100327.12;;;20.60;35.21
65013;BME280;51715;39.432;-77.518;2023-05-23T05:55:10;100328.07;;;20.40;35.19
65013;BME280;51715;39.432;-77.518;2023-05-23T05:57:39;100327.66;;;20.57;35.36
65013;BME280;51715;39.432;-77.518;2023-05-23T06:00:09;100330.76;;;20.52;35.52
65013;BME280;51715;39.432;-77.518;2023-05-23T06:02:37;100330.60;;;20.34;34.90
65013;BME280;51715;39.432;-77.518;2023-05-23T06:05:06;100332.20;;;20.54;35.66
65013;BME280;51715;39.432;-77.518;2023-05-23T06:07:34;100331.03;;;20.99;36.11
65013;BME280;51715;39.432;-77.518;2023-05-23T06:10:03;100329.14;;;20.50;36.11
65013;BME280;51715;39.432;-77.518;2023-05-23T06:12:31;100328.77;;;20.55;35.59
65013;BME280;51715;39.432;-77.518;2023-05-23T06:15:00;100329.68;;;20.50;35.84
65013;BME280;51715;39.432;-77.518;2023-05-23T06:17:28;100325.35;;;20.38;35.78
65013;BME280;51715;39.432;-77.518;2023-05-23T06:19:57;100328.06;;;20.28;36.45
65013;BME280;51715;39.432;-77.518;2023-05-23T06:22:25;100333.50;;;20.25;37.71
65013;BME280;51715;39.432;-77.518;2023-05-23T06:24:53;100327.14;;;19.88;37.58
65013;BME280;51715;39.432;-77.518;2023-05-23T06:27:21;100331.22;;;20.22;38.21
65013;BME280;51715;39.432;-77.518;2023-05-23T06:29:49;100329.65;;;20.31;37.81
65013;BME280;51715;39.432;-77.518;2023-05-23T06:32:17;100329.37;;;20.19;37.26
65013;BME280;51715;39.432;-77.518;2023-05-23T06:34:44;100328.10;;;19.89;38.23
65013;BME280;51715;39.432;-77.518;2023-05-23T06:37:12;100330.16;;;19.48;38.66
65013;BME280;51715;39.432;-77.518;2023-05-23T06:39:41;100331.68;;;19.43;38.40
65013;BME280;51715;39.432;-77.518;2023-05-23T06:42:09;100333.32;;;19.53;38.26
65013;BME280;51715;39.432;-77.518;2023-05-23T06:44:38;100332.51;;;19.76;38.40
65013;BME280;51715;39.432;-77.518;2023-05-23T06:47:05;100331.93;;;19.89;38.27
65013;BME280;51715;39.432;-77.518;2023-05-23T06:49:33;100333.08;;;19.88;38.31
65013;BME280;51715;39.432;-77.518;2023-05-23T06:52:01;100336.52;;;19.75;38.20
65013;BME280;51715;39.432;-77.518;2023-05-23T06:54:29;100338.28;;;19.99;38.25
65013;BME280;51715;39.432;-77.518;2023-05-23T06:56:58;100339.32;;;19.98;38.11
65013;BME280;51715;39.432;-77.518;2023-05-23T06:59:26;100338.78;;;20.04;38.15
65013;BME280;51715;39.432;-77.518;2023-05-23T07:01:54;100341.38;;;19.84;38.16
65013;BME280;51715;39.432;-77.518;2023-05-23T07:04:22;100343.65;;;20.03;38.03
65013;BME280;51715;39.432;-77.518;2023-05-23T07:06:52;100345.30;;;20.04;38.09
65013;BME280;51715;39.432;-77.518;2023-05-23T07:09:20;100345.29;;;20.00;38.10
65013;BME280;51715;39.432;-77.518;2023-05-23T07:11:48;100342.60;;;20.03;38.00
65013;BME280;51715;39.432;-77.518;2023-05-23T07:14:16;100340.44;;;19.83;38.16
65013;BME280;51715;39.432;-77.518;2023-05-23T07:16:44;100339.07;;;20.02;38.00
65013;BME280;51715;39.432;-77.518;2023-05-23T07:19:12;100341.53;;;19.81;38.12
65013;BME280;51715;39.432;-77.518;2023-05-23T07:21:41;100342.31;;;20.00;38.22
65013;BME280;51715;39.432;-77.518;2023-05-23T07:24:09;100341.76;;;19.77;38.32
65013;BME280;51715;39.432;-77.518;2023-05-23T07:26:37;100342.79;;;19.99;38.34
65013;BME280;51715;39.432;-77.518;2023-05-23T07:29:05;100342.66;;;19.75;38.17
65013;BME280;51715;39.432;-77.518;2023-05-23T07:31:32;100347.30;;;19.96;38.50
65013;BME280;51715;39.432;-77.518;2023-05-23T07:34:00;100346.48;;;19.71;38.71
65013;BME280;51715;39.432;-77.518;2023-05-23T07:36:28;100347.94;;;19.70;38.58
65013;BME280;51715;39.432;-77.518;2023-05-23T07:38:56;100352.11;;;19.93;38.60
65013;BME280;51715;39.432;-77.518;2023-05-23T07:41:24;100352.11;;;19.94;38.66
65013;BME280;51715;39.432;-77.518;2023-05-23T07:43:52;100351.33;;;19.72;38.57
65013;BME280;51715;39.432;-77.518;2023-05-23T07:46:20;100351.65;;;20.16;38.52
65013;BME280;51715;39.432;-77.518;2023-05-23T07:48:48;100348.49;;;19.91;38.88
65013;BME280;51715;39.432;-77.518;2023-05-23T07:51:16;100350.37;;;19.49;38.65
65013;BME280;51715;39.432;-77.518;2023-05-23T07:53:45;100349.95;;;20.04;38.80
65013;BME280;51715;39.432;-77.518;2023-05-23T07:56:13;100349.45;;;19.94;38.46
65013;BME280;51715;39.432;-77.518;2023-05-23T07:58:41;100351.69;;;20.23;38.52
65013;BME280;51715;39.432;-77.518;2023-05-23T08:01:09;100351.89;;;20.05;38.52
65013;BME280;51715;39.432;-77.518;2023-05-23T08:03:37;100354.74;;;19.79;38.65
65013;BME280;51715;39.432;-77.518;2023-05-23T08:06:05;100357.20;;;20.12;38.38
65013;BME280;51715;39.432;-77.518;2023-05-23T08:08:39;100357.37;;;20.05;38.81
65013;BME280;51715;39.432;-77.518;2023-05-23T08:11:07;100357.43;;;20.30;38.56
65013;BME280;51715;39.432;-77.518;2023-05-23T08:13:35;100359.57;;;20.19;38.95
65013;BME280;51715;39.432;-77.518;2023-05-23T08:16:03;100361.57;;;20.23;38.85
65013;BME280;51715;39.432;-77.518;2023-05-23T08:18:32;100360.21;;;20.08;38.86
65013;BME280;51715;39.432;-77.518;2023-05-23T08:21:00;100360.51;;;19.88;39.32
65013;BME280;51715;39.432;-77.518;2023-05-23T08:23:29;100360.28;;;20.30;38.86
65013;BME280;51715;39.432;-77.518;2023-05-23T08:25:58;100362.83;;;20.10;39.00
65013;BME280;51715;39.432;-77.518;2023-05-23T08:28:25;100367.13;;;19.89;39.07
65013;BME280;51715;39.432;-77.518;2023-05-23T08:30:54;100370.27;;;19.97;38.93
65013;BME280;51715;39.432;-77.518;2023-05-23T08:33:22;100369.96;;;19.98;38.81
65013;BME280;51715;39.432;-77.518;2023-05-23T08:35:50;100368.48;;;20.10;38.63
65013;BME280;51715;39.432;-77.518;2023-05-23T08:38:19;100371.65;;;20.22;38.38
65013;BME280;51715;39.432;-77.518;2023-05-23T08:40:50;100374.68;;;20.30;38.25
65013;BME280;51715;39.432;-77.518;2023-05-23T08:43:18;100380.32;;;20.26;38.38
65013;BME280;51715;39.432;-77.518;2023-05-23T08:45:48;100377.91;;;20.37;38.05
65013;BME280;51715;39.432;-77.518;2023-05-23T08:48:19;100378.36;;;20.42;38.04
65013;BME280;51715;39.432;-77.518;2023-05-23T08:50:49;100381.33;;;20.37;38.22
65013;BME280;51715;39.432;-77.518;2023-05-23T08:53:17;100383.96;;;20.32;38.30
65013;BME280;51715;39.432;-77.518;2023-05-23T08:55:48;100390.61;;;20.32;38.13
65013;BME280;51715;39.432;-77.518;2023-05-23T08:58:18;100393.77;;;20.33;38.22
65013;BME280;51715;39.432;-77.518;2023-05-23T09:00:46;100394.07;;;20.35;38.22
65013;BME280;51715;39.432;-77.518;2023-05-23T09:03:14;100392.58;;;20.36;38.18
65013;BME280;51715;39.432;-77.518;2023-05-23T09:05:43;100394.69;;;20.41;37.94
65013;BME280;51715;39.432;-77.518;2023-05-23T09:08:11;100397.47;;;20.43;38.00
65013;BME280;51715;39.432;-77.518;2023-05-23T09:10:39;100400.46;;;20.33;38.37
65013;BME280;51715;39.432;-77.518;2023-05-23T09:13:07;100402.73;;;20.33;38.41
65013;BME280;51715;39.432;-77.518;2023-05-23T09:15:35;100401.11;;;20.30;38.27
65013;BME280;51715;39.432;-77.518;2023-05-23T09:18:04;100402.06;;;20.27;38.30
65013;BME280;51715;39.432;-77.518;2023-05-23T09:20:32;100402.46;;;20.27;38.08
65013;BME280;51715;39.432;-77.518;2023-05-23T09:23:01;100403.15;;;20.52;38.14
65013;BME280;51715;39.432;-77.518;2023-05-23T09:25:35;100404.54;;;20.67;38.55
65013;BME280;51715;39.432;-77.518;2023-05-23T09:28:05;100409.41;;;20.22;38.24
65013;BME280;51715;39.432;-77.518;2023-05-23T09:30:34;100408.71;;;19.83;38.98
65013;BME280;51715;39.432;-77.518;2023-05-23T09:33:01;100414.98;;;19.91;38.65
65013;BME280;51715;39.432;-77.518;2023-05-23T09:35:30;100414.39;;;20.15;38.61
65013;BME280;51715;39.432;-77.518;2023-05-23T09:37:59;100417.56;;;19.88;39.64
65013;BME280;51715;39.432;-77.518;2023-05-23T09:40:30;100418.69;;;19.77;39.41
65013;BME280;51715;39.432;-77.518;2023-05-23T09:43:02;100419.41;;;20.11;39.17
65013;BME280;51715;39.432;-77.518;2023-05-23T09:45:32;100419.39;;;19.96;39.08
65013;BME280;51715;39.432;-77.518;2023-05-23T09:48:00;100419.90;;;20.27;39.03
65013;BME280;51715;39.432;-77.518;2023-05-23T09:50:31;100416.61;;;20.33;38.82
65013;BME280;51715;39.432;-77.518;2023-05-23T09:52:59;100416.97;;;20.27;39.19
65013;BME280;51715;39.432;-77.518;2023-05-23T09:55:28;100420.77;;;20.00;39.00
65013;BME280;51715;39.432;-77.518;2023-05-23T09:57:58;100423.24;;;20.13;39.35
65013;BME280;51715;39.432;-77.518;2023-05-23T10:00:26;100428.82;;;19.93;39.32
65013;BME280;51715;39.432;-77.518;2023-05-23T10:02:58;100435.82;;;19.87;39.46
65013;BME280;51715;39.432;-77.518;2023-05-23T10:05:34;100439.94;;;20.13;39.44
65013;BME280;51715;39.432;-77.518;2023-05-23T10:08:08;100444.53;;;20.14;39.64
65013;BME280;51715;39.432;-77.518;2023-05-23T10:11:07;100443.40;;;19.69;39.43
65013;BME280;51715;39.432;-77.518;2023-05-23T10:13:49;100447.79;;;20.25;39.04
65013;BME280;51715;39.432;-77.518;2023-05-23T10:16:19;100454.67;;;20.18;39.43
65013;BME280;51715;39.432;-77.518;2023-05-23T10:18:56;100456.04;;;20.03;39.40
65013;BME280;51715;39.432;-77.518;2023-05-23T10:21:32;100462.91;;;19.98;39.39
65013;BME280;51715;39.432;-77.518;2023-05-23T10:24:00;100464.94;;;20.09;39.09
65013;BME280;51715;39.432;-77.518;2023-05-23T10:26:31;100469.88;;;20.18;39.00
65013;BME280;51715;39.432;-77.518;2023-05-23T10:29:00;100471.55;;;20.02;39.00
65013;BME280;51715;39.432;-77.518;2023-05-23T10:31:29;100473.31;;;19.97;39.21
65013;BME280;51715;39.432;-77.518;2023-05-23T10:34:04;100473.97;;;20.05;39.11
65013;BME280;51715;39.432;-77.518;2023-05-23T10:36:42;100473.97;;;20.08;38.95
65013;BME280;51715;39.432;-77.518;2023-05-23T10:39:18;100476.50;;;20.06;38.88
65013;BME280;51715;39.432;-77.518;2023-05-23T10:41:58;100474.83;;;20.07;38.78
65013;BME280;51715;39.432;-77.518;2023-05-23T10:44:29;100479.72;;;20.28;39.24
65013;BME280;51715;39.432;-77.518;2023-05-23T10:46:59;100484.09;;;20.20;38.89
65013;BME280;51715;39.432;-77.518;2023-05-23T10:49:43;100484.29;;;20.28;38.69
65013;BME280;51715;39.432;-77.518;2023-05-23T10:52:14;100486.90;;;20.21;39.32
65013;BME280;51715;39.432;-77.518;2023-05-23T10:54:44;100485.92;;;20.37;38.89
65013;BME280;51715;39.432;-77.518;2023-05-23T10:57:17;100485.52;;;20.15;39.14
65013;BME280;51715;39.432;-77.518;2023-05-23T10:59:49;100484.56;;;20.32;38.75
65013;BME280;51715;39.432;-77.518;2023-05-23T11:02:25;100488.84;;;20.45;38.63
65013;BME280;51715;39.432;-77.518;2023-05-23T11:05:18;100492.03;;;20.43;38.85
65013;BME280;51715;39.432;-77.518;2023-05-23T11:07:47;100497.50;;;20.67;38.96
65013;BME280;51715;39.432;-77.518;2023-05-23T11:10:51;100498.56;;;20.41;38.71
65013;BME280;51715;39.432;-77.518;2023-05-23T11:13:19;100497.00;;;20.60;38.73
65013;BME280;51715;39.432;-77.518;2023-05-23T11:15:48;100497.79;;;20.37;39.78
65013;BME280;51715;39.432;-77.518;2023-05-23T11:18:22;100496.58;;;20.41;38.68
65013;BME280;51715;39.432;-77.518;2023-05-23T11:20:53;100499.67;;;20.59;38.19
65013;BME280;51715;39.432;-77.518;2023-05-23T11:23:22;100504.33;;;20.78;37.84
65013;BME280;51715;39.432;-77.518;2023-05-23T11:25:52;100503.76;;;20.69;38.62
65013;BME280;51715;39.432;-77.518;2023-05-23T11:28:20;100501.74;;;20.63;38.58
65013;BME280;51715;39.432;-77.518;2023-05-23T11:30:49;100504.68;;;20.86;38.32
65013;BME280;51715;39.432;-77.518;2023-05-23T11:33:18;100508.45;;;20.93;38.61
65013;BME280;51715;39.432;-77.518;2023-05-23T11:35:47;100509.66;;;20.87;38.41
65013;BME280;51715;39.432;-77.518;2023-05-23T11:38:16;100507.65;;;20.76;38.78
65013;BME280;51715;39.432;-77.518;2023-05-23T11:40:46;100509.87;;;21.19;38.92
65013;BME280;51715;39.432;-77.518;2023-05-23T11:43:15;100511.54;;;21.33;38.29
65013;BME280;51715;39.432;-77.518;2023-05-23T11:45:43;100516.14;;;20.96;38.19
65013;BME280;51715;39.432;-77.518;2023-05-23T11:48:13;100513.06;;;21.35;37.54
65013;BME280;51715;39.432;-77.518;2023-05-23T11:50:47;100514.01;;;21.62;37.53
65013;BME280;51715;39.432;-77.518;2023-05-23T11:53:16;100510.50;;;21.40;37.37
65013;BME280;51715;39.432;-77.518;2023-05-23T11:55:54;100514.43;;;20.60;38.13
65013;BME280;51715;39.432;-77.518;2023-05-23T11:58:27;100518.78;;;20.91;39.04
65013;BME280;51715;39.432;-77.518;2023-05-23T12:00:59;100522.91;;;21.05;38.01
65013;BME280;51715;39.432;-77.518;2023-05-23T12:03:27;100521.83;;;21.35;37.12
65013;BME280;51715;39.432;-77.518;2023-05-23T12:05:57;100520.42;;;21.82;36.81
65013;BME280;51715;39.432;-77.518;2023-05-23T12:08:25;100520.76;;;21.95;37.22
65013;BME280;51715;39.432;-77.518;2023-05-23T12:10:57;100518.48;;;22.13;36.22
65013;BME280;51715;39.432;-77.518;2023-05-23T12:13:27;100519.07;;;22.01;35.82
65013;BME280;51715;39.432;-77.518;2023-05-23T12:15:55;100518.99;;;22.31;36.01
65013;BME280;51715;39.432;-77.518;2023-05-23T12:18:27;100518.91;;;21.95;35.32
65013;BME280;51715;39.432;-77.518;2023-05-23T12:21:00;100526.48;;;22.48;34.98
65013;BME280;51715;39.432;-77.518;2023-05-23T12:23:30;100529.00;;;22.29;35.06
65013;BME280;51715;39.432;-77.518;2023-05-23T12:25:58;100531.02;;;22.25;36.39
65013;BME280;51715;39.432;-77.518;2023-05-23T12:28:35;100536.61;;;22.62;36.85
65013;BME280;51715;39.432;-77.518;2023-05-23T12:31:17;100544.00;;;23.06;37.19
65013;BME280;51715;39.432;-77.518;2023-05-23T12:33:51;100537.68;;;23.18;35.15
65013;BME280;51715;39.432;-77.518;2023-05-23T12:36:23;100535.26;;;23.36;35.09
65013;BME280;51715;39.432;-77.518;2023-05-23T12:38:51;100532.30;;;23.37;34.85
65013;BME280;51715;39.432;-77.518;2023-05-23T12:41:20;100534.69;;;23.47;36.04
65013;BME280;51715;39.432;-77.518;2023-05-23T12:43:51;100533.04;;;23.47;34.82
65013;BME280;51715;39.432;-77.518;2023-05-23T12:46:20;100532.16;;;23.45;34.03